LFML 231430Z AUTO 17012KT CAVOK 18/07 Q1026 BECMG VRB02KT

ElémentsDécodage
LFML Station météo située sur l'aérodrome de MARSEILLE PROVENCE
231430Z émis le 23 du mois à 14h30 UTC
AUTO Bulletin édité par un automate
17012KT vent du 170°, 12 noeuds
CAVOK Ceiling And Visibility OK
- Visibilité de 10 Km ou plus
- Pas de nuage au-dessous de 1500m ou au-dessous de l'altitude minimale du secteur la plus élevée (si>1500m) et absence de CB
- pas de temps présent significatif
18/07 température 18°C, point de rosée 07°C
 soit une humidité relative de 49%
Q1026 la pression au niveau de la mer (QNH) est de 1026 hPa
BECMG fluctuation du temps prévue
VRB02KT vent de direction variable, 02 noeuds